Time;durP1;ratioP1;P1;durP2;ratioP2;P2;SDS_P1;SDS_P2;PMS_P1;PMS_P2;Temp;Humidity;BMP_temperature;BMP_pressure;BME280_temperature;BME280_humidity;BME280_pressure;Samples;Min_cycle;Max_cycle;Signal;HPM_P1;HPM_P2
2023/06/06 00:01:49;;;;;;;6.63;1.90;;;;;;;;;;5011324;28;20036;-72
2023/06/06 00:04:15;;;;;;;4.65;2.00;;;;;;;;;;5013008;28;20069;-72
2023/06/06 00:06:44;;;;;;;5.68;2.40;;;;;;;;;;5011453;28;20076;-72
2023/06/06 00:09:12;;;;;;;6.15;1.85;;;;;;;;;;5012833;28;20371;-72
2023/06/06 00:11:39;;;;;;;10.77;2.47;;;;;;;;;;5011915;28;20550;-72
2023/06/06 00:14:07;;;;;;;5.57;2.15;;;;;;;;;;5012869;28;20560;-72
2023/06/06 00:16:32;;;;;;;5.00;2.05;;;;;;;;;;5012525;28;20378;-72
2023/06/06 00:18:58;;;;;;;4.88;2.15;;;;;;;;;;5011457;28;20042;-72
2023/06/06 00:21:24;;;;;;;6.47;2.55;;;;;;;;;;5011334;28;20041;-73
2023/06/06 00:23:50;;;;;;;5.05;2.50;;;;;;;;;;5011477;28;20048;-72
2023/06/06 00:26:15;;;;;;;6.88;2.28;;;;;;;;;;5012518;28;20041;-72
2023/06/06 00:28:41;;;;;;;3.65;2.13;;;;;;;;;;5012565;28;20030;-72
2023/06/06 00:31:06;;;;;;;6.35;2.30;;;;;;;;;;5012663;28;20057;-72
2023/06/06 00:33:31;;;;;;;5.25;2.55;;;;;;;;;;5012872;28;20038;-72
2023/06/06 00:35:57;;;;;;;6.00;2.60;;;;;;;;;;5011012;28;20042;-73
2023/06/06 00:38:22;;;;;;;6.93;2.78;;;;;;;;;;5012876;28;20030;-72
2023/06/06 00:40:47;;;;;;;5.05;1.80;;;;;;;;;;5012160;28;20044;-72
2023/06/06 00:43:13;;;;;;;5.60;2.50;;;;;;;;;;5011536;28;20045;-73
2023/06/06 00:45:38;;;;;;;6.13;2.75;;;;;;;;;;5011250;28;20529;-72
2023/06/06 00:48:04;;;;;;;6.70;2.90;;;;;;;;;;5012132;28;20429;-72
2023/06/06 00:50:30;;;;;;;8.98;3.08;;;;;;;;;;5011198;28;20053;-72
2023/06/06 00:52:56;;;;;;;3.95;1.90;;;;;;;;;;5010206;28;20118;-72
2023/06/06 00:55:22;;;;;;;6.40;2.75;;;;;;;;;;5012754;28;20038;-72
2023/06/06 00:57:51;;;;;;;5.35;2.80;;;;;;;;;;5011804;28;20533;-72
2023/06/06 01:00:17;;;;;;;12.45;2.40;;;;;;;;;;5012855;28;20034;-72
2023/06/06 01:02:48;;;;;;;3.28;1.45;;;;;;;;;;5010300;28;20668;-72
2023/06/06 01:05:15;;;;;;;5.07;2.40;;;;;;;;;;5011318;28;20137;-72
2023/06/06 01:07:42;;;;;;;7.28;2.08;;;;;;;;;;5012276;28;20526;-72
2023/06/06 01:10:09;;;;;;;5.45;2.40;;;;;;;;;;5012448;28;20133;-72
2023/06/06 01:12:47;;;;;;;7.40;2.30;;;;;;;;;;5007234;28;20054;-72
2023/06/06 01:15:30;;;;;;;4.55;1.90;;;;;;;;;;5012425;28;20433;-72
2023/06/06 01:17:56;;;;;;;3.97;2.00;;;;;;;;;;5011943;28;20116;-72
2023/06/06 01:20:23;;;;;;;6.57;2.40;;;;;;;;;;4998334;28;20133;-72
2023/06/06 01:22:49;;;;;;;5.20;2.53;;;;;;;;;;5012110;28;20049;-73
2023/06/06 01:25:19;;;;;;;6.15;2.53;;;;;;;;;;5014704;28;20053;-72
2023/06/06 01:27:47;;;;;;;5.32;2.42;;;;;;;;;;5015307;28;20040;-72
2023/06/06 01:30:15;;;;;;;6.82;2.90;;;;;;;;;;5015626;28;20096;-72
2023/06/06 01:32:50;;;;;;;6.70;2.53;;;;;;;;;;5015468;28;20073;-72
2023/06/06 01:35:30;;;;;;;8.38;2.42;;;;;;;;;;5005579;28;20096;-72
2023/06/06 01:38:18;;;;;;;7.05;2.97;;;;;;;;;;5013201;28;20061;-72
2023/06/06 01:40:45;;;;;;;8.43;2.85;;;;;;;;;;5003191;28;20044;-72
2023/06/06 01:43:10;;;;;;;3.10;1.88;;;;;;;;;;5014312;28;20045;-72
2023/06/06 01:45:38;;;;;;;6.57;2.72;;;;;;;;;;5015396;28;20037;-72
2023/06/06 01:48:04;;;;;;;6.50;2.58;;;;;;;;;;5014551;28;20041;-72
2023/06/06 01:50:31;;;;;;;5.60;2.40;;;;;;;;;;5012001;28;20042;-72
2023/06/06 01:52:57;;;;;;;13.00;2.83;;;;;;;;;;5013904;28;20041;-72
2023/06/06 01:55:22;;;;;;;8.77;2.60;;;;;;;;;;5015277;28;20041;-72
2023/06/06 01:57:48;;;;;;;4.15;2.10;;;;;;;;;;5014953;28;20056;-72
2023/06/06 02:00:15;;;;;;;7.80;2.42;;;;;;;;;;5014846;28;20034;-72
2023/06/06 02:02:40;;;;;;;5.97;2.70;;;;;;;;;;5014602;28;20388;-72
2023/06/06 02:05:06;;;;;;;5.22;2.55;;;;;;;;;;5013961;28;20038;-72
2023/06/06 02:07:34;;;;;;;13.75;2.90;;;;;;;;;;5014478;28;20042;-72
2023/06/06 02:10:03;;;;;;;6.60;3.53;;;;;;;;;;5013984;28;20033;-72
2023/06/06 02:12:28;;;;;;;8.75;2.88;;;;;;;;;;5002825;28;20502;-72
2023/06/06 02:14:54;;;;;;;6.20;2.63;;;;;;;;;;5013282;28;20049;-72
2023/06/06 02:17:20;;;;;;;7.00;2.45;;;;;;;;;;5013496;28;20037;-73
2023/06/06 02:19:45;;;;;;;5.45;3.05;;;;;;;;;;5013260;28;20037;-72
2023/06/06 02:22:11;;;;;;;5.43;2.22;;;;;;;;;;5014719;28;20172;-72
2023/06/06 02:24:36;;;;;;;4.63;2.70;;;;;;;;;;5014712;28;20366;-73
2023/06/06 02:27:02;;;;;;;8.38;2.55;;;;;;;;;;5014052;28;20120;-73
2023/06/06 02:29:27;;;;;;;10.50;2.80;;;;;;;;;;5011133;28;20049;-72
2023/06/06 02:31:53;;;;;;;7.18;3.15;;;;;;;;;;5014152;28;20501;-72
2023/06/06 02:34:18;;;;;;;5.20;2.40;;;;;;;;;;5014387;28;20560;-73
2023/06/06 02:36:44;;;;;;;7.10;2.88;;;;;;;;;;5012471;28;20050;-73
2023/06/06 02:39:09;;;;;;;4.25;2.55;;;;;;;;;;5013405;28;20096;-73
2023/06/06 02:41:35;;;;;;;6.03;2.83;;;;;;;;;;5013953;28;20063;-72
2023/06/06 02:44:00;;;;;;;7.15;2.95;;;;;;;;;;5013103;28;20033;-72
2023/06/06 02:46:25;;;;;;;6.88;3.22;;;;;;;;;;5013681;28;20044;-72
2023/06/06 02:48:52;;;;;;;9.43;2.88;;;;;;;;;;5013998;28;20087;-72
2023/06/06 02:51:19;;;;;;;9.90;3.00;;;;;;;;;;5013950;28;20042;-72
2023/06/06 02:53:45;;;;;;;7.63;2.80;;;;;;;;;;5001621;28;20095;-72
2023/06/06 02:56:12;;;;;;;4.85;2.58;;;;;;;;;;5012749;28;20038;-72
2023/06/06 02:58:38;;;;;;;8.77;2.38;;;;;;;;;;5013330;28;20054;-72
2023/06/06 03:01:03;;;;;;;7.68;2.83;;;;;;;;;;5013898;28;20063;-72
2023/06/06 03:03:29;;;;;;;9.80;2.70;;;;;;;;;;5013971;28;20041;-72
2023/06/06 03:05:56;;;;;;;5.75;2.88;;;;;;;;;;5013763;28;20034;-72
2023/06/06 03:08:21;;;;;;;7.00;2.78;;;;;;;;;;5012809;28;20066;-72
2023/06/06 03:10:47;;;;;;;6.13;2.58;;;;;;;;;;5013534;28;20068;-73
2023/06/06 03:13:13;;;;;;;8.57;2.78;;;;;;;;;;5011229;28;20038;-72
2023/06/06 03:15:41;;;;;;;6.38;2.80;;;;;;;;;;5013722;28;20041;-72
2023/06/06 03:18:11;;;;;;;7.13;3.22;;;;;;;;;;5012904;28;20379;-71
2023/06/06 03:20:40;;;;;;;11.13;3.13;;;;;;;;;;5002568;28;20041;-73
2023/06/06 03:23:11;;;;;;;4.55;2.65;;;;;;;;;;5013178;28;20045;-72
2023/06/06 03:25:37;;;;;;;10.52;3.45;;;;;;;;;;5007417;28;20124;-73
2023/06/06 03:28:02;;;;;;;8.32;3.00;;;;;;;;;;5013236;28;20097;-72
2023/06/06 03:30:27;;;;;;;5.90;2.95;;;;;;;;;;5013491;28;20184;-72
2023/06/06 03:32:53;;;;;;;6.22;2.53;;;;;;;;;;5013298;28;20045;-72
2023/06/06 03:35:19;;;;;;;5.22;3.00;;;;;;;;;;5013520;28;20037;-72
2023/06/06 03:37:44;;;;;;;8.50;2.88;;;;;;;;;;5012067;28;20449;-72
2023/06/06 03:40:12;;;;;;;6.30;2.92;;;;;;;;;;5013383;28;20128;-72
2023/06/06 03:42:38;;;;;;;7.15;3.50;;;;;;;;;;5013015;28;20034;-72
2023/06/06 03:45:04;;;;;;;4.95;2.60;;;;;;;;;;5012632;28;20041;-72
2023/06/06 03:47:30;;;;;;;10.18;3.38;;;;;;;;;;5009784;28;20050;-72
2023/06/06 03:49:55;;;;;;;6.82;2.92;;;;;;;;;;5011933;28;20462;-72
2023/06/06 03:52:21;;;;;;;9.10;2.95;;;;;;;;;;5012876;28;20080;-73
2023/06/06 03:54:46;;;;;;;8.15;3.38;;;;;;;;;;5012961;28;20125;-72
2023/06/06 03:57:11;;;;;;;14.65;2.88;;;;;;;;;;5012833;28;20092;-72
2023/06/06 03:59:37;;;;;;;8.30;3.10;;;;;;;;;;5013004;28;20041;-72
2023/06/06 04:02:03;;;;;;;7.53;2.97;;;;;;;;;;5012122;28;20457;-73
2023/06/06 04:04:30;;;;;;;6.75;3.25;;;;;;;;;;5012013;28;20112;-73
2023/06/06 04:06:56;;;;;;;6.80;3.45;;;;;;;;;;5012705;28;20034;-72
2023/06/06 04:09:22;;;;;;;8.15;3.35;;;;;;;;;;5011980;28;20041;-73
2023/06/06 04:11:47;;;;;;;9.65;3.47;;;;;;;;;;5012199;28;20505;-71
2023/06/06 04:14:13;;;;;;;4.95;3.10;;;;;;;;;;5012948;28;20478;-72
2023/06/06 04:16:40;;;;;;;6.40;3.17;;;;;;;;;;5012509;28;20038;-73
2023/06/06 04:19:06;;;;;;;10.35;3.25;;;;;;;;;;5012654;28;20053;-72
2023/06/06 04:21:32;;;;;;;6.95;2.80;;;;;;;;;;5008608;28;20486;-72
2023/06/06 04:23:57;;;;;;;16.77;4.43;;;;;;;;;;5012976;28;20096;-72
2023/06/06 04:26:24;;;;;;;7.57;3.67;;;;;;;;;;5011143;28;20473;-73
2023/06/06 04:28:52;;;;;;;5.43;3.53;;;;;;;;;;5012486;28;20549;-72
2023/06/06 04:31:18;;;;;;;7.03;4.32;;;;;;;;;;5007497;28;20042;-72
2023/06/06 04:33:43;;;;;;;8.25;3.83;;;;;;;;;;5011626;28;20037;-73
2023/06/06 04:36:08;;;;;;;11.18;4.15;;;;;;;;;;5012439;28;20048;-72
2023/06/06 04:38:37;;;;;;;8.40;4.38;;;;;;;;;;5012150;28;20038;-72
2023/06/06 04:41:02;;;;;;;9.52;4.20;;;;;;;;;;5010008;28;20509;-72
2023/06/06 04:43:27;;;;;;;11.30;3.92;;;;;;;;;;5011652;28;20030;-72
2023/06/06 04:45:53;;;;;;;8.20;4.15;;;;;;;;;;5012356;28;20030;-72
2023/06/06 04:48:19;;;;;;;5.88;3.63;;;;;;;;;;5010989;28;20048;-72
2023/06/06 04:50:46;;;;;;;5.25;3.15;;;;;;;;;;5008374;28;20135;-73
2023/06/06 04:53:12;;;;;;;13.45;4.47;;;;;;;;;;5011368;28;20490;-72
2023/06/06 04:55:39;;;;;;;7.80;3.78;;;;;;;;;;5012121;28;20065;-72
2023/06/06 04:58:04;;;;;;;7.20;3.17;;;;;;;;;;5014155;28;20510;-72
2023/06/06 05:00:30;;;;;;;7.13;2.58;;;;;;;;;;5015887;28;20041;-72
2023/06/06 05:02:56;;;;;;;5.63;3.38;;;;;;;;;;5015969;28;20050;-72
2023/06/06 05:05:21;;;;;;;9.25;3.70;;;;;;;;;;5016167;28;20045;-71
2023/06/06 05:07:47;;;;;;;10.05;3.45;;;;;;;;;;5015813;28;20430;-72
2023/06/06 05:10:12;;;;;;;6.70;3.38;;;;;;;;;;5016049;28;20025;-72
2023/06/06 05:12:38;;;;;;;4.68;2.63;;;;;;;;;;5014484;28;20041;-72
2023/06/06 05:15:04;;;;;;;8.30;3.30;;;;;;;;;;5016159;28;20053;-71
2023/06/06 05:17:29;;;;;;;5.75;3.28;;;;;;;;;;5013380;28;20061;-73
2023/06/06 05:19:55;;;;;;;6.03;2.80;;;;;;;;;;5015773;28;20049;-72
2023/06/06 05:22:20;;;;;;;5.25;2.80;;;;;;;;;;5015716;28;20041;-72
2023/06/06 05:24:45;;;;;;;5.82;2.47;;;;;;;;;;5014518;28;20034;-72
2023/06/06 05:27:11;;;;;;;7.85;3.22;;;;;;;;;;5015426;28;20042;-72
2023/06/06 05:29:37;;;;;;;8.88;2.63;;;;;;;;;;5015758;28;20044;-72
2023/06/06 05:32:03;;;;;;;9.13;2.47;;;;;;;;;;5015250;28;20109;-72
2023/06/06 05:34:28;;;;;;;6.43;2.50;;;;;;;;;;5015805;28;20550;-72
2023/06/06 05:36:54;;;;;;;4.57;2.58;;;;;;;;;;5015198;28;20038;-73
2023/06/06 05:39:20;;;;;;;4.72;2.03;;;;;;;;;;5015790;28;20045;-72
2023/06/06 05:41:47;;;;;;;7.10;2.70;;;;;;;;;;5014565;28;20038;-72
2023/06/06 05:44:12;;;;;;;5.50;2.28;;;;;;;;;;5015305;28;20490;-72
2023/06/06 05:46:38;;;;;;;5.00;2.50;;;;;;;;;;5015306;28;20076;-72
2023/06/06 05:49:03;;;;;;;7.45;2.90;;;;;;;;;;5014955;28;20048;-72
2023/06/06 05:51:28;;;;;;;8.98;2.72;;;;;;;;;;5013347;28;20089;-73
2023/06/06 05:53:54;;;;;;;4.88;2.50;;;;;;;;;;5015472;28;20060;-72
2023/06/06 05:56:21;;;;;;;3.70;2.42;;;;;;;;;;5007581;28;20153;-72
2023/06/06 05:58:47;;;;;;;4.95;2.40;;;;;;;;;;5012463;28;20367;-72
2023/06/06 06:01:13;;;;;;;6.28;3.10;;;;;;;;;;5010752;28;20037;-72
2023/06/06 06:03:42;;;;;;;4.97;2.55;;;;;;;;;;5011386;28;20486;-72
2023/06/06 06:06:08;;;;;;;5.07;3.20;;;;;;;;;;5012601;28;20160;-73
2023/06/06 06:08:34;;;;;;;5.90;3.35;;;;;;;;;;5011134;28;20030;-72
2023/06/06 06:11:00;;;;;;;4.95;2.30;;;;;;;;;;5010822;28;20044;-71
2023/06/06 06:13:25;;;;;;;5.95;2.72;;;;;;;;;;5010884;28;20042;-72
2023/06/06 06:15:50;;;;;;;5.78;3.30;;;;;;;;;;5012383;28;20124;-72
2023/06/06 06:18:16;;;;;;;4.32;2.10;;;;;;;;;;5012031;28;20038;-72
2023/06/06 06:20:41;;;;;;;9.90;2.80;;;;;;;;;;5012950;28;20042;-72
2023/06/06 06:23:06;;;;;;;8.00;2.30;;;;;;;;;;5012944;28;20036;-72
2023/06/06 06:25:32;;;;;;;4.70;2.60;;;;;;;;;;5013567;28;20045;-72
2023/06/06 06:27:57;;;;;;;5.70;2.38;;;;;;;;;;5008941;28;20126;-72
2023/06/06 06:30:23;;;;;;;6.00;2.58;;;;;;;;;;5012810;28;20069;-72
2023/06/06 06:32:48;;;;;;;6.95;2.30;;;;;;;;;;5013268;28;20045;-72
2023/06/06 06:35:14;;;;;;;4.28;2.55;;;;;;;;;;5014540;28;20049;-72
2023/06/06 06:37:40;;;;;;;2.88;1.60;;;;;;;;;;5014205;28;20026;-73
2023/06/06 06:40:12;;;;;;;6.10;2.50;;;;;;;;;;5013895;28;20045;-72
2023/06/06 06:42:42;;;;;;;3.55;1.70;;;;;;;;;;5011229;28;20100;-72
2023/06/06 06:45:10;;;;;;;7.57;2.20;;;;;;;;;;5014108;28;20124;-72
2023/06/06 06:47:36;;;;;;;5.28;2.40;;;;;;;;;;5011227;28;20053;-72
2023/06/06 06:50:02;;;;;;;4.55;2.60;;;;;;;;;;5013831;28;20034;-72
2023/06/06 06:52:27;;;;;;;5.07;2.65;;;;;;;;;;5011462;28;20104;-72
2023/06/06 06:54:54;;;;;;;3.90;2.33;;;;;;;;;;5012820;28;20406;-73
2023/06/06 06:57:23;;;;;;;4.13;2.38;;;;;;;;;;5013582;28;20408;-73
2023/06/06 06:59:48;;;;;;;3.40;1.88;;;;;;;;;;5012424;28;20400;-73
2023/06/06 07:02:14;;;;;;;5.53;2.53;;;;;;;;;;5013724;28;20041;-72
2023/06/06 07:04:40;;;;;;;4.30;2.35;;;;;;;;;;5012872;28;20034;-73
2023/06/06 07:07:08;;;;;;;5.60;2.90;;;;;;;;;;5013938;28;20418;-73
2023/06/06 07:09:33;;;;;;;4.63;2.22;;;;;;;;;;4999396;28;20056;-72
2023/06/06 07:11:59;;;;;;;8.32;2.22;;;;;;;;;;5012352;28;20466;-72
2023/06/06 07:14:28;;;;;;;2.97;1.58;;;;;;;;;;5013779;28;20046;-72
2023/06/06 07:16:54;;;;;;;9.35;2.88;;;;;;;;;;5012477;28;20117;-73
2023/06/06 07:19:19;;;;;;;5.15;2.47;;;;;;;;;;5013420;28;20065;-73
2023/06/06 07:21:44;;;;;;;4.00;1.83;;;;;;;;;;5011815;28;20045;-73
2023/06/06 07:24:10;;;;;;;4.20;1.77;;;;;;;;;;5012847;28;20045;-72
2023/06/06 07:26:35;;;;;;;6.45;2.15;;;;;;;;;;5013445;28;20029;-72
2023/06/06 07:29:01;;;;;;;3.60;2.00;;;;;;;;;;5013609;28;20034;-72
2023/06/06 07:31:26;;;;;;;6.30;2.17;;;;;;;;;;5013429;28;20437;-72
2023/06/06 07:33:52;;;;;;;2.70;1.33;;;;;;;;;;5011686;28;20036;-72
2023/06/06 07:36:17;;;;;;;2.58;1.65;;;;;;;;;;5012449;28;20540;-72
2023/06/06 07:38:42;;;;;;;4.45;2.10;;;;;;;;;;5011667;28;20077;-72
2023/06/06 07:41:08;;;;;;;6.90;1.95;;;;;;;;;;5012601;28;20037;-72
2023/06/06 07:43:33;;;;;;;7.50;1.90;;;;;;;;;;5012725;28;20029;-72
2023/06/06 07:45:58;;;;;;;3.00;2.00;;;;;;;;;;5013139;28;20083;-72
2023/06/06 07:48:23;;;;;;;3.67;2.03;;;;;;;;;;5013458;28;20036;-72
2023/06/06 07:50:49;;;;;;;3.42;1.90;;;;;;;;;;5012745;28;20116;-72
2023/06/06 07:53:15;;;;;;;5.38;2.20;;;;;;;;;;5013253;28;20124;-72
2023/06/06 07:55:41;;;;;;;5.20;2.53;;;;;;;;;;5013356;28;20124;-72
2023/06/06 07:58:12;;;;;;;6.90;2.50;;;;;;;;;;5011238;28;20121;-72
2023/06/06 08:00:44;;;;;;;4.18;2.28;;;;;;;;;;5011157;28;20073;-72
2023/06/06 08:03:11;;;;;;;2.15;1.33;;;;;;;;;;5011646;28;20038;-72
2023/06/06 08:05:37;;;;;;;4.60;1.85;;;;;;;;;;5011678;28;20045;-73
2023/06/06 08:08:04;;;;;;;5.22;2.50;;;;;;;;;;5013097;28;20026;-72
2023/06/06 08:10:29;;;;;;;4.00;2.13;;;;;;;;;;5010361;28;20034;-72
2023/06/06 08:12:54;;;;;;;7.90;2.88;;;;;;;;;;5000279;28;20038;-72
2023/06/06 08:15:20;;;;;;;9.35;2.50;;;;;;;;;;5009171;28;20034;-72
2023/06/06 08:17:45;;;;;;;4.90;2.30;;;;;;;;;;5011582;28;20079;-72
2023/06/06 08:20:11;;;;;;;3.70;2.53;;;;;;;;;;5012546;28;20041;-72
2023/06/06 08:22:38;;;;;;;4.93;2.30;;;;;;;;;;5012656;28;20053;-72
2023/06/06 08:25:05;;;;;;;5.50;2.67;;;;;;;;;;5012269;28;20120;-72
2023/06/06 08:27:31;;;;;;;3.58;1.85;;;;;;;;;;5012320;28;20042;-72
2023/06/06 08:29:56;;;;;;;5.15;2.35;;;;;;;;;;5012647;28;20030;-72
2023/06/06 08:32:21;;;;;;;5.40;2.35;;;;;;;;;;5014016;28;20037;-72
2023/06/06 08:34:47;;;;;;;9.45;2.85;;;;;;;;;;5015848;28;20080;-72
2023/06/06 08:37:12;;;;;;;4.40;2.63;;;;;;;;;;5016879;28;20080;-72
2023/06/06 08:39:38;;;;;;;7.78;2.65;;;;;;;;;;5016625;28;20120;-72
2023/06/06 08:42:04;;;;;;;4.80;2.30;;;;;;;;;;5016095;28;20046;-72
2023/06/06 08:44:30;;;;;;;6.15;2.55;;;;;;;;;;5015777;28;20040;-72
2023/06/06 08:46:59;;;;;;;6.38;2.92;;;;;;;;;;5016425;28;20046;-72
2023/06/06 08:49:27;;;;;;;6.05;2.40;;;;;;;;;;5014876;28;20077;-72
2023/06/06 08:51:52;;;;;;;5.57;2.85;;;;;;;;;;5013904;28;20489;-72
2023/06/06 08:54:19;;;;;;;6.32;2.90;;;;;;;;;;5013444;28;20073;-71
2023/06/06 08:56:45;;;;;;;7.10;3.17;;;;;;;;;;5012496;28;20504;-71
2023/06/06 08:59:10;;;;;;;4.45;2.42;;;;;;;;;;5014702;28;20045;-72
2023/06/06 09:01:38;;;;;;;5.68;2.83;;;;;;;;;;5012015;28;20375;-72
2023/06/06 09:04:03;;;;;;;5.03;2.42;;;;;;;;;;5009640;28;20038;-72
2023/06/06 09:06:29;;;;;;;5.68;3.00;;;;;;;;;;5014464;28;20030;-71
2023/06/06 09:08:55;;;;;;;4.93;2.47;;;;;;;;;;4997663;28;20038;-71
2023/06/06 09:11:21;;;;;;;3.90;2.03;;;;;;;;;;5008014;28;20040;-71
2023/06/06 09:13:46;;;;;;;3.50;2.30;;;;;;;;;;5005114;28;20088;-71
2023/06/06 09:16:15;;;;;;;10.15;2.88;;;;;;;;;;5012531;28;20045;-72
2023/06/06 09:18:41;;;;;;;4.32;2.90;;;;;;;;;;5012465;28;20045;-71
2023/06/06 09:21:07;;;;;;;3.65;2.10;;;;;;;;;;5002675;28;20061;-71
2023/06/06 09:23:33;;;;;;;5.53;2.50;;;;;;;;;;5010509;28;20068;-72
2023/06/06 09:25:59;;;;;;;8.40;2.90;;;;;;;;;;5010765;28;20088;-71
2023/06/06 09:28:38;;;;;;;6.93;2.78;;;;;;;;;;5011683;28;20030;-71
2023/06/06 09:31:30;;;;;;;5.07;2.92;;;;;;;;;;5009885;28;20037;-71
2023/06/06 09:33:57;;;;;;;5.97;3.00;;;;;;;;;;5007600;28;20088;-71
2023/06/06 09:36:23;;;;;;;4.97;2.88;;;;;;;;;;5009026;28;20042;-72
2023/06/06 09:38:53;;;;;;;4.60;2.50;;;;;;;;;;5010077;28;20026;-71
2023/06/06 09:41:19;;;;;;;6.78;2.80;;;;;;;;;;5012053;28;20032;-71
2023/06/06 09:43:45;;;;;;;6.13;2.60;;;;;;;;;;5009850;28;20053;-72
2023/06/06 09:46:14;;;;;;;4.95;2.67;;;;;;;;;;5011197;28;20042;-71
2023/06/06 09:48:40;;;;;;;5.65;2.20;;;;;;;;;;5009586;28;20454;-72
2023/06/06 09:51:09;;;;;;;5.00;3.00;;;;;;;;;;5011451;28;20061;-71
2023/06/06 09:53:35;;;;;;;8.68;2.40;;;;;;;;;;5010373;28;20084;-71
2023/06/06 09:56:03;;;;;;;3.80;2.75;;;;;;;;;;5009295;28;20042;-71
2023/06/06 09:58:30;;;;;;;5.25;3.05;;;;;;;;;;5003356;28;20062;-71
2023/06/06 10:00:59;;;;;;;3.88;1.92;;;;;;;;;;5006060;28;20112;-71
2023/06/06 10:03:25;;;;;;;4.72;2.40;;;;;;;;;;5010914;28;20044;-72
2023/06/06 10:05:52;;;;;;;5.07;2.30;;;;;;;;;;5011383;28;20112;-72
2023/06/06 10:08:19;;;;;;;5.20;2.25;;;;;;;;;;5009141;28;20488;-71
2023/06/06 10:10:46;;;;;;;3.55;1.98;;;;;;;;;;5009463;28;20045;-71
2023/06/06 10:13:12;;;;;;;5.90;2.40;;;;;;;;;;5010922;28;20076;-71
2023/06/06 10:15:38;;;;;;;3.50;2.17;;;;;;;;;;5011364;28;20509;-72
2023/06/06 10:18:04;;;;;;;6.13;2.67;;;;;;;;;;5008481;28;20033;-71
2023/06/06 10:20:30;;;;;;;4.45;2.40;;;;;;;;;;5010699;28;20045;-71
2023/06/06 10:22:56;;;;;;;3.90;2.45;;;;;;;;;;5009593;28;20041;-71
2023/06/06 10:25:21;;;;;;;5.88;2.55;;;;;;;;;;5010423;28;20034;-71
2023/06/06 10:27:56;;;;;;;4.57;2.40;;;;;;;;;;5011058;28;20048;-72
2023/06/06 10:30:26;;;;;;;4.60;2.50;;;;;;;;;;5010238;28;20128;-71
2023/06/06 10:33:02;;;;;;;3.65;2.03;;;;;;;;;;5010502;28;20036;-71
2023/06/06 10:35:30;;;;;;;8.02;2.45;;;;;;;;;;5008868;28;20042;-71
2023/06/06 10:38:09;;;;;;;5.35;2.65;;;;;;;;;;5008810;28;20056;-71
2023/06/06 10:40:42;;;;;;;4.28;2.42;;;;;;;;;;4994756;28;20029;-72
2023/06/06 10:43:11;;;;;;;5.20;2.25;;;;;;;;;;5010437;28;20052;-71
2023/06/06 10:45:44;;;;;;;5.00;2.50;;;;;;;;;;5009774;28;20041;-72
2023/06/06 10:48:10;;;;;;;6.53;3.00;;;;;;;;;;4993955;28;20029;-71
2023/06/06 10:50:35;;;;;;;7.32;2.70;;;;;;;;;;5008244;28;20046;-71
2023/06/06 10:53:06;;;;;;;5.38;2.42;;;;;;;;;;5009782;28;20042;-72
2023/06/06 10:55:32;;;;;;;3.28;2.20;;;;;;;;;;5010584;28;20502;-71
2023/06/06 10:58:04;;;;;;;5.63;2.50;;;;;;;;;;5009445;28;20061;-73
2023/06/06 11:00:35;;;;;;;4.40;2.53;;;;;;;;;;5008313;28;20044;-72
2023/06/06 11:03:04;;;;;;;4.97;2.60;;;;;;;;;;5008810;28;20059;-71
2023/06/06 11:05:29;;;;;;;9.07;3.00;;;;;;;;;;5009904;28;20046;-71
2023/06/06 11:07:57;;;;;;;4.78;2.58;;;;;;;;;;5003908;28;20034;-72
2023/06/06 11:10:22;;;;;;;4.68;2.42;;;;;;;;;;5009175;28;20034;-71
2023/06/06 11:12:49;;;;;;;4.82;2.15;;;;;;;;;;5008470;28;20042;-71
2023/06/06 11:15:26;;;;;;;6.22;2.30;;;;;;;;;;5009624;28;20033;-72
2023/06/06 11:17:59;;;;;;;4.55;2.35;;;;;;;;;;5008163;28;20062;-70
2023/06/06 11:20:26;;;;;;;2.97;1.83;;;;;;;;;;5008319;28;20036;-71
2023/06/06 11:23:01;;;;;;;4.75;2.10;;;;;;;;;;5007889;28;20479;-71
2023/06/06 11:25:28;;;;;;;4.15;2.00;;;;;;;;;;5007681;28;20081;-71
2023/06/06 11:27:54;;;;;;;3.70;1.65;;;;;;;;;;5002680;28;20040;-71
2023/06/06 11:30:20;;;;;;;4.25;2.08;;;;;;;;;;5010267;28;20038;-72
2023/06/06 11:32:46;;;;;;;3.75;1.95;;;;;;;;;;5008442;28;20076;-72
2023/06/06 11:35:18;;;;;;;3.38;2.10;;;;;;;;;;5008949;28;20422;-72
2023/06/06 11:37:44;;;;;;;3.95;2.13;;;;;;;;;;5002531;28;20049;-71
2023/06/06 11:40:10;;;;;;;3.20;2.08;;;;;;;;;;5009653;28;20054;-72
2023/06/06 11:42:35;;;;;;;3.67;1.67;;;;;;;;;;5008859;28;20046;-72
2023/06/06 11:45:01;;;;;;;5.53;2.10;;;;;;;;;;5009535;28;20033;-72
2023/06/06 11:47:33;;;;;;;2.95;1.90;;;;;;;;;;5009950;28;20069;-71
2023/06/06 11:49:58;;;;;;;4.63;2.08;;;;;;;;;;5009502;28;20034;-72
2023/06/06 11:52:24;;;;;;;7.22;2.13;;;;;;;;;;5005470;28;20046;-71
2023/06/06 11:54:51;;;;;;;4.35;2.30;;;;;;;;;;5006433;28;20457;-72
2023/06/06 11:57:18;;;;;;;3.92;2.13;;;;;;;;;;4999272;28;20495;-71
2023/06/06 11:59:44;;;;;;;6.45;2.95;;;;;;;;;;5008450;28;20041;-71
2023/06/06 12:02:12;;;;;;;5.10;2.00;;;;;;;;;;5009899;28;20128;-72
2023/06/06 12:04:46;;;;;;;4.25;2.00;;;;;;;;;;5005445;28;20041;-71
2023/06/06 12:07:12;;;;;;;3.17;1.90;;;;;;;;;;5009229;28;20049;-72
2023/06/06 12:09:37;;;;;;;4.63;1.80;;;;;;;;;;5004779;28;20034;-72
2023/06/06 12:12:04;;;;;;;4.38;2.08;;;;;;;;;;5007154;28;20061;-72
2023/06/06 12:14:31;;;;;;;4.30;1.88;;;;;;;;;;4998925;28;20070;-71
2023/06/06 12:17:10;;;;;;;2.80;1.92;;;;;;;;;;5007468;28;20041;-72
2023/06/06 12:19:36;;;;;;;3.75;1.92;;;;;;;;;;5002157;28;20125;-72
2023/06/06 12:22:02;;;;;;;7.47;2.20;;;;;;;;;;5002242;28;20141;-72
2023/06/06 12:24:32;;;;;;;4.78;2.00;;;;;;;;;;5007967;28;20065;-72
2023/06/06 12:27:02;;;;;;;4.70;1.60;;;;;;;;;;4993658;28;20381;-72
2023/06/06 12:29:35;;;;;;;6.15;2.40;;;;;;;;;;4999998;28;20034;-71
2023/06/06 12:32:17;;;;;;;4.90;2.30;;;;;;;;;;5004216;28;20121;-72
2023/06/06 12:34:45;;;;;;;4.57;2.58;;;;;;;;;;5006797;28;20030;-71
2023/06/06 12:37:11;;;;;;;5.13;2.10;;;;;;;;;;5006658;28;20046;-71
2023/06/06 12:39:42;;;;;;;5.70;2.25;;;;;;;;;;4999640;28;20038;-72
2023/06/06 12:42:15;;;;;;;4.07;2.25;;;;;;;;;;5005840;28;20422;-72
2023/06/06 12:44:41;;;;;;;4.13;2.30;;;;;;;;;;5003164;28;20529;-72
2023/06/06 12:47:07;;;;;;;4.13;2.13;;;;;;;;;;5004428;28;20046;-72
2023/06/06 12:49:36;;;;;;;4.47;1.95;;;;;;;;;;5006491;28;20394;-72
2023/06/06 12:52:01;;;;;;;5.50;2.30;;;;;;;;;;5008839;28;20390;-71
2023/06/06 12:54:27;;;;;;;5.47;2.67;;;;;;;;;;5008914;28;20034;-71
2023/06/06 12:56:52;;;;;;;4.80;2.35;;;;;;;;;;5008446;28;20367;-71
2023/06/06 12:59:17;;;;;;;4.82;1.83;;;;;;;;;;5008911;28;20393;-71
2023/06/06 13:01:43;;;;;;;6.07;2.30;;;;;;;;;;5008750;28;20030;-71
2023/06/06 13:04:08;;;;;;;4.38;2.50;;;;;;;;;;5009492;28;20058;-71
2023/06/06 13:06:34;;;;;;;4.32;2.60;;;;;;;;;;5009082;28;20061;-71
2023/06/06 13:08:59;;;;;;;4.75;2.83;;;;;;;;;;5008730;28;20034;-71
2023/06/06 13:11:24;;;;;;;4.22;2.30;;;;;;;;;;5009168;28;20096;-72
2023/06/06 13:13:50;;;;;;;4.22;2.75;;;;;;;;;;5008931;28;20034;-71
2023/06/06 13:16:15;;;;;;;4.72;3.10;;;;;;;;;;5009394;28;20061;-72
2023/06/06 13:18:41;;;;;;;4.82;2.78;;;;;;;;;;4997650;28;20389;-72
2023/06/06 13:21:06;;;;;;;6.03;2.53;;;;;;;;;;5012914;28;20458;-72
2023/06/06 13:23:31;;;;;;;6.00;2.80;;;;;;;;;;5012935;28;20029;-72
2023/06/06 13:25:57;;;;;;;5.40;2.53;;;;;;;;;;5012510;28;20152;-71
2023/06/06 13:28:23;;;;;;;5.63;2.70;;;;;;;;;;5012586;28;20048;-72
2023/06/06 13:30:48;;;;;;;4.20;2.55;;;;;;;;;;5011947;28;20030;-71
2023/06/06 13:33:14;;;;;;;6.03;2.40;;;;;;;;;;5012694;28;20046;-72
2023/06/06 13:35:39;;;;;;;5.75;2.65;;;;;;;;;;5011294;28;20053;-71
2023/06/06 13:38:05;;;;;;;7.38;2.78;;;;;;;;;;5011536;28;20076;-71
2023/06/06 13:40:30;;;;;;;3.90;2.50;;;;;;;;;;5012148;28;20050;-71
2023/06/06 13:42:55;;;;;;;4.72;2.58;;;;;;;;;;5011660;28;20091;-71
2023/06/06 13:45:21;;;;;;;7.43;2.50;;;;;;;;;;5012917;28;20489;-71
2023/06/06 13:47:47;;;;;;;4.00;2.63;;;;;;;;;;5012379;28;20041;-72
2023/06/06 13:50:12;;;;;;;3.92;2.45;;;;;;;;;;5010611;28;20910;-71
2023/06/06 13:52:39;;;;;;;4.15;2.33;;;;;;;;;;5011735;28;20033;-72
2023/06/06 13:55:05;;;;;;;4.20;2.50;;;;;;;;;;5012227;28;20037;-72
2023/06/06 13:57:31;;;;;;;4.15;2.60;;;;;;;;;;5011472;28;20053;-71
2023/06/06 13:59:57;;;;;;;4.50;2.17;;;;;;;;;;5011326;28;20029;-72
2023/06/06 14:02:24;;;;;;;4.63;2.60;;;;;;;;;;5011584;28;20038;-71
2023/06/06 14:04:49;;;;;;;7.63;2.47;;;;;;;;;;5012007;28;20053;-72
2023/06/06 14:07:16;;;;;;;5.38;2.65;;;;;;;;;;5011854;28;20400;-71
2023/06/06 14:09:41;;;;;;;3.20;2.22;;;;;;;;;;5011991;28;20042;-72
2023/06/06 14:12:07;;;;;;;9.75;2.78;;;;;;;;;;5011640;28;20041;-71
2023/06/06 14:14:33;;;;;;;5.22;2.47;;;;;;;;;;5011384;28;20030;-72
2023/06/06 14:17:00;;;;;;;5.00;2.75;;;;;;;;;;5009997;28;20379;-72
2023/06/06 14:19:35;;;;;;;3.92;2.20;;;;;;;;;;5011385;28;20053;-71
2023/06/06 14:24:50;;;;;;;3.63;2.28;;;;;;;;;;5010742;28;20512;-72
2023/06/06 14:27:16;;;;;;;4.78;2.47;;;;;;;;;;5011370;28;20396;-71
2023/06/06 14:29:41;;;;;;;6.88;2.50;;;;;;;;;;5006938;28;20045;-72
2023/06/06 14:32:10;;;;;;;4.28;2.70;;;;;;;;;;5009720;28;20049;-72
2023/06/06 14:34:37;;;;;;;4.35;2.30;;;;;;;;;;5010137;28;20037;-72
2023/06/06 14:37:03;;;;;;;5.22;2.90;;;;;;;;;;5010343;28;20165;-72
2023/06/06 14:39:28;;;;;;;4.35;2.10;;;;;;;;;;5010118;28;20112;-72
2023/06/06 14:41:54;;;;;;;3.80;2.40;;;;;;;;;;5008252;28;20119;-72
2023/06/06 14:44:19;;;;;;;4.03;2.47;;;;;;;;;;5011292;28;20081;-72